KWYS Airport Information

Runway Information
Runway 01 Length 8399 ft width 150 ft
Elevation 6644 ft Threshold 0 ft Heading 26
Runway 19 Length 8399 ft Width 150 ft
Elevation 6629 ft Threshold 0 ft Heading 206
Airport Frequencies
Type CNTR Name SALT LAKE Frequency 132.4 MHZ
Type RDO Name GREAT FALL Frequency 119.4 MHZ
Type UNIC Name CTAF/UNICO Frequency 123 MHZ
Airport Navaids
Type NDB Name Targy Frequency 415 KHZ
Airport Weather Information & NOTAM
ADDS - METARS form results

(0343 UTC 18 November 2018)
Data provider http://aviationweather.gov/metar/data/
 
METAR text: KWYS 180335Z AUTO 00000KT 10SM CLR M16/M18 A3022 RMK AO2
Conditions at: KWYS (WEST YELLOWSTONE, MT, US) observed 0335 UTC 18 November 2018
Temperature: -16.0°C ( 3°F)
Dewpoint: -18.0°C (-0°F) [RH = 85%]
Pressure (altimeter): 30.22 inches Hg (1023.5 mb)
Winds: calm
Visibility: 10 or more miles (16+ km)
Ceiling: at least 12,000 feet AGL
Clouds: sky clear below 12,000 feet AGL
Weather: automated observation with no human augmentation;
there may or may not be significant weather present at this time

METAR text: KWYS 180315Z AUTO 00000KT 10SM CLR M16/M18 A3022 RMK AO2
Conditions at: KWYS (WEST YELLOWSTONE, MT, US) observed 0315 UTC 18 November 2018
Temperature: -16.0°C ( 3°F)
Dewpoint: -18.0°C (-0°F) [RH = 85%]
Pressure (altimeter): 30.22 inches Hg (1023.5 mb)
Winds: calm
Visibility: 10 or more miles (16+ km)
Ceiling: at least 12,000 feet AGL
Clouds: sky clear below 12,000 feet AGL
Weather: automated observation with no human augmentation;
there may or may not be significant weather present at this time

METAR text: KWYS 180255Z AUTO 00000KT 10SM CLR M15/M17 A3022 RMK AO2
Conditions at: KWYS (WEST YELLOWSTONE, MT, US) observed 0255 UTC 18 November 2018
Temperature: -15.0°C ( 5°F)
Dewpoint: -17.0°C ( 1°F) [RH = 85%]
Pressure (altimeter): 30.22 inches Hg (1023.5 mb)
Winds: calm
Visibility: 10 or more miles (16+ km)
Ceiling: at least 12,000 feet AGL
Clouds: sky clear below 12,000 feet AGL
Weather: automated observation with no human augmentation;
there may or may not be significant weather present at this time